Webcam

Richtung Osten

METAR LOWZ 070700Z AUTO 26003KT 9999 FEW009 OVC041 M01/M01 Q1015=

Richtung Westen

METAR LOWZ 070700Z AUTO 26003KT 9999 FEW009 OVC041 M01/M01 Q1015=

Richtung Norden

METAR LOWZ 070700Z AUTO 26003KT 9999 FEW009 OVC041 M01/M01 Q1015=